sensor_id;sensor_type;location;lat;lon;timestamp;temperature;humidity
774;DHT22;370;48.810;9.150;2023-11-19T00:00:58;8.70;66.50
774;DHT22;370;48.810;9.150;2023-11-19T00:03:25;8.60;65.00
774;DHT22;370;48.810;9.150;2023-11-19T00:05:53;8.70;67.20
774;DHT22;370;48.810;9.150;2023-11-19T00:08:21;8.80;67.50
774;DHT22;370;48.810;9.150;2023-11-19T00:10:50;8.80;66.10
774;DHT22;370;48.810;9.150;2023-11-19T00:13:17;8.80;65.40
774;DHT22;370;48.810;9.150;2023-11-19T00:15:44;8.80;66.30
774;DHT22;370;48.810;9.150;2023-11-19T00:18:13;8.70;68.10
774;DHT22;370;48.810;9.150;2023-11-19T00:20:40;8.80;70.30
774;DHT22;370;48.810;9.150;2023-11-19T00:23:08;8.90;70.30
774;DHT22;370;48.810;9.150;2023-11-19T00:25:35;8.90;70.30
774;DHT22;370;48.810;9.150;2023-11-19T00:28:01;9.00;72.20
774;DHT22;370;48.810;9.150;2023-11-19T00:30:28;9.10;72.10
774;DHT22;370;48.810;9.150;2023-11-19T00:32:56;9.10;72.70
774;DHT22;370;48.810;9.150;2023-11-19T00:35:23;9.20;72.10
774;DHT22;370;48.810;9.150;2023-11-19T00:37:50;9.20;73.50
774;DHT22;370;48.810;9.150;2023-11-19T00:40:18;9.40;73.90
774;DHT22;370;48.810;9.150;2023-11-19T00:42:47;9.50;73.50
774;DHT22;370;48.810;9.150;2023-11-19T00:45:14;9.60;71.30
774;DHT22;370;48.810;9.150;2023-11-19T00:47:41;9.70;71.00
774;DHT22;370;48.810;9.150;2023-11-19T00:50:09;9.70;71.00
774;DHT22;370;48.810;9.150;2023-11-19T00:52:36;9.80;71.10
774;DHT22;370;48.810;9.150;2023-11-19T00:55:04;9.80;71.10
774;DHT22;370;48.810;9.150;2023-11-19T00:57:33;9.90;69.90
774;DHT22;370;48.810;9.150;2023-11-19T01:00:00;9.90;71.20
774;DHT22;370;48.810;9.150;2023-11-19T01:02:28;9.90;70.10
774;DHT22;370;48.810;9.150;2023-11-19T01:04:55;9.90;70.10
774;DHT22;370;48.810;9.150;2023-11-19T01:07:22;9.90;69.90
774;DHT22;370;48.810;9.150;2023-11-19T01:09:49;10.00;69.20
774;DHT22;370;48.810;9.150;2023-11-19T01:12:17;10.00;67.60
774;DHT22;370;48.810;9.150;2023-11-19T01:14:45;10.00;68.30
774;DHT22;370;48.810;9.150;2023-11-19T01:17:11;10.00;68.00
774;DHT22;370;48.810;9.150;2023-11-19T01:19:38;10.00;67.90
774;DHT22;370;48.810;9.150;2023-11-19T01:22:05;10.10;67.90
774;DHT22;370;48.810;9.150;2023-11-19T01:24:31;10.10;68.20
774;DHT22;370;48.810;9.150;2023-11-19T01:26:59;10.20;68.20
774;DHT22;370;48.810;9.150;2023-11-19T01:29:26;10.10;67.60
774;DHT22;370;48.810;9.150;2023-11-19T01:31:54;10.20;68.30
774;DHT22;370;48.810;9.150;2023-11-19T01:34:21;10.20;67.40
774;DHT22;370;48.810;9.150;2023-11-19T01:36:48;10.20;66.90
774;DHT22;370;48.810;9.150;2023-11-19T01:39:15;10.20;67.70
774;DHT22;370;48.810;9.150;2023-11-19T01:41:43;10.20;69.30
774;DHT22;370;48.810;9.150;2023-11-19T01:44:09;10.20;69.60
774;DHT22;370;48.810;9.150;2023-11-19T01:46:38;10.20;69.50
774;DHT22;370;48.810;9.150;2023-11-19T01:49:08;10.30;68.80
774;DHT22;370;48.810;9.150;2023-11-19T01:51:35;10.30;68.60
774;DHT22;370;48.810;9.150;2023-11-19T01:54:02;10.30;69.30
774;DHT22;370;48.810;9.150;2023-11-19T01:56:30;10.30;67.90
774;DHT22;370;48.810;9.150;2023-11-19T01:58:58;10.30;69.50
774;DHT22;370;48.810;9.150;2023-11-19T02:01:26;10.30;68.50
774;DHT22;370;48.810;9.150;2023-11-19T02:03:52;10.40;70.70
774;DHT22;370;48.810;9.150;2023-11-19T02:06:21;10.40;68.50
774;DHT22;370;48.810;9.150;2023-11-19T02:08:49;10.30;68.00
774;DHT22;370;48.810;9.150;2023-11-19T02:11:17;10.30;68.80
774;DHT22;370;48.810;9.150;2023-11-19T02:13:44;10.30;70.00
774;DHT22;370;48.810;9.150;2023-11-19T02:16:11;10.40;70.70
774;DHT22;370;48.810;9.150;2023-11-19T02:18:38;10.30;70.60
774;DHT22;370;48.810;9.150;2023-11-19T02:21:05;10.30;70.90
774;DHT22;370;48.810;9.150;2023-11-19T02:23:33;10.40;72.30
774;DHT22;370;48.810;9.150;2023-11-19T02:26:05;10.40;71.90
774;DHT22;370;48.810;9.150;2023-11-19T02:28:36;10.50;72.00
774;DHT22;370;48.810;9.150;2023-11-19T02:31:03;10.50;70.80
774;DHT22;370;48.810;9.150;2023-11-19T02:33:30;10.50;70.80
774;DHT22;370;48.810;9.150;2023-11-19T02:35:57;10.50;70.10
774;DHT22;370;48.810;9.150;2023-11-19T02:38:23;10.60;70.90
774;DHT22;370;48.810;9.150;2023-11-19T02:40:51;10.50;70.70
774;DHT22;370;48.810;9.150;2023-11-19T02:43:18;10.60;70.90
774;DHT22;370;48.810;9.150;2023-11-19T02:45:46;10.70;71.20
774;DHT22;370;48.810;9.150;2023-11-19T02:48:13;10.70;71.00
774;DHT22;370;48.810;9.150;2023-11-19T02:50:41;10.60;70.40
774;DHT22;370;48.810;9.150;2023-11-19T02:53:08;10.60;70.90
774;DHT22;370;48.810;9.150;2023-11-19T02:58:57;10.70;71.00
774;DHT22;370;48.810;9.150;2023-11-19T03:01:25;10.90;71.80
774;DHT22;370;48.810;9.150;2023-11-19T03:03:55;10.70;69.70
774;DHT22;370;48.810;9.150;2023-11-19T03:06:23;10.60;70.00
774;DHT22;370;48.810;9.150;2023-11-19T03:08:50;10.70;71.50
774;DHT22;370;48.810;9.150;2023-11-19T03:11:16;10.70;71.00
774;DHT22;370;48.810;9.150;2023-11-19T03:13:43;10.90;72.40
774;DHT22;370;48.810;9.150;2023-11-19T03:16:10;10.80;71.10
774;DHT22;370;48.810;9.150;2023-11-19T03:18:38;10.90;72.40
774;DHT22;370;48.810;9.150;2023-11-19T03:21:06;10.80;71.70
774;DHT22;370;48.810;9.150;2023-11-19T03:23:33;10.90;71.20
774;DHT22;370;48.810;9.150;2023-11-19T03:26:00;10.90;72.10
774;DHT22;370;48.810;9.150;2023-11-19T03:28:29;11.00;72.00
774;DHT22;370;48.810;9.150;2023-11-19T03:30:56;11.00;71.30
774;DHT22;370;48.810;9.150;2023-11-19T03:33:23;11.00;71.30
774;DHT22;370;48.810;9.150;2023-11-19T03:35:54;11.00;71.20
774;DHT22;370;48.810;9.150;2023-11-19T03:38:22;11.10;71.40
774;DHT22;370;48.810;9.150;2023-11-19T03:40:49;11.10;68.80
774;DHT22;370;48.810;9.150;2023-11-19T03:43:16;11.10;68.80
774;DHT22;370;48.810;9.150;2023-11-19T03:45:44;11.00;67.70
774;DHT22;370;48.810;9.150;2023-11-19T03:48:11;11.00;70.40
774;DHT22;370;48.810;9.150;2023-11-19T03:50:38;11.00;70.10
774;DHT22;370;48.810;9.150;2023-11-19T03:53:06;10.90;71.20
774;DHT22;370;48.810;9.150;2023-11-19T03:55:33;11.10;72.30
774;DHT22;370;48.810;9.150;2023-11-19T03:58:00;11.10;71.90
774;DHT22;370;48.810;9.150;2023-11-19T04:00:27;11.10;71.40
774;DHT22;370;48.810;9.150;2023-11-19T04:02:54;11.10;71.40
774;DHT22;370;48.810;9.150;2023-11-19T04:05:21;11.00;71.30
774;DHT22;370;48.810;9.150;2023-11-19T04:07:48;11.00;72.80
774;DHT22;370;48.810;9.150;2023-11-19T04:10:16;11.00;73.30
774;DHT22;370;48.810;9.150;2023-11-19T04:12:44;11.10;72.30
774;DHT22;370;48.810;9.150;2023-11-19T04:15:11;11.10;72.20
774;DHT22;370;48.810;9.150;2023-11-19T04:17:38;11.10;71.40
774;DHT22;370;48.810;9.150;2023-11-19T04:20:06;11.10;71.40
774;DHT22;370;48.810;9.150;2023-11-19T04:22:36;11.10;72.30
774;DHT22;370;48.810;9.150;2023-11-19T04:25:03;11.20;71.70
774;DHT22;370;48.810;9.150;2023-11-19T04:27:32;11.30;71.50
774;DHT22;370;48.810;9.150;2023-11-19T04:29:59;11.20;70.80
774;DHT22;370;48.810;9.150;2023-11-19T04:32:27;11.30;70.30
774;DHT22;370;48.810;9.150;2023-11-19T04:34:54;11.20;70.50
774;DHT22;370;48.810;9.150;2023-11-19T04:37:21;11.20;69.30
774;DHT22;370;48.810;9.150;2023-11-19T04:39:48;11.30;68.70
774;DHT22;370;48.810;9.150;2023-11-19T04:42:15;11.30;68.50
774;DHT22;370;48.810;9.150;2023-11-19T04:44:44;11.20;68.80
774;DHT22;370;48.810;9.150;2023-11-19T04:47:11;11.20;69.50
774;DHT22;370;48.810;9.150;2023-11-19T04:49:40;11.30;70.20
774;DHT22;370;48.810;9.150;2023-11-19T04:52:08;11.40;69.80
774;DHT22;370;48.810;9.150;2023-11-19T04:54:35;11.40;68.50
774;DHT22;370;48.810;9.150;2023-11-19T04:57:02;11.30;68.70
774;DHT22;370;48.810;9.150;2023-11-19T04:59:28;11.30;69.50
774;DHT22;370;48.810;9.150;2023-11-19T05:01:57;11.30;69.50
774;DHT22;370;48.810;9.150;2023-11-19T05:04:24;11.30;69.80
774;DHT22;370;48.810;9.150;2023-11-19T05:06:51;11.30;69.90
774;DHT22;370;48.810;9.150;2023-11-19T05:09:18;11.30;69.70
774;DHT22;370;48.810;9.150;2023-11-19T05:11:45;11.40;69.90
774;DHT22;370;48.810;9.150;2023-11-19T05:14:12;11.40;69.70
774;DHT22;370;48.810;9.150;2023-11-19T05:16:39;11.40;68.40
774;DHT22;370;48.810;9.150;2023-11-19T05:19:07;11.40;67.60
774;DHT22;370;48.810;9.150;2023-11-19T05:21:34;11.40;67.60
774;DHT22;370;48.810;9.150;2023-11-19T05:24:01;11.40;69.20
774;DHT22;370;48.810;9.150;2023-11-19T05:26:30;11.40;68.80
774;DHT22;370;48.810;9.150;2023-11-19T05:28:56;11.40;69.30
774;DHT22;370;48.810;9.150;2023-11-19T05:31:23;11.50;69.60
774;DHT22;370;48.810;9.150;2023-11-19T05:33:50;11.40;69.00
774;DHT22;370;48.810;9.150;2023-11-19T05:36:18;11.50;70.00
774;DHT22;370;48.810;9.150;2023-11-19T05:38:45;11.60;68.60
774;DHT22;370;48.810;9.150;2023-11-19T05:41:11;11.50;67.50
774;DHT22;370;48.810;9.150;2023-11-19T05:43:38;11.60;67.70
774;DHT22;370;48.810;9.150;2023-11-19T05:46:06;11.60;66.50
774;DHT22;370;48.810;9.150;2023-11-19T05:48:34;11.60;65.90
774;DHT22;370;48.810;9.150;2023-11-19T05:51:01;11.60;65.70
774;DHT22;370;48.810;9.150;2023-11-19T05:53:29;11.60;66.60
774;DHT22;370;48.810;9.150;2023-11-19T05:55:56;11.60;66.80
774;DHT22;370;48.810;9.150;2023-11-19T05:58:24;11.60;66.80
774;DHT22;370;48.810;9.150;2023-11-19T06:00:55;11.60;66.20
774;DHT22;370;48.810;9.150;2023-11-19T06:03:22;11.60;65.70
774;DHT22;370;48.810;9.150;2023-11-19T06:05:50;11.60;64.50
774;DHT22;370;48.810;9.150;2023-11-19T06:08:17;11.50;65.70
774;DHT22;370;48.810;9.150;2023-11-19T06:10:47;11.60;65.60
774;DHT22;370;48.810;9.150;2023-11-19T06:13:16;11.50;65.40
774;DHT22;370;48.810;9.150;2023-11-19T06:15:43;11.40;66.60
774;DHT22;370;48.810;9.150;2023-11-19T06:18:10;11.40;68.00
774;DHT22;370;48.810;9.150;2023-11-19T06:20:38;11.50;68.60
774;DHT22;370;48.810;9.150;2023-11-19T06:23:05;11.50;67.60
774;DHT22;370;48.810;9.150;2023-11-19T06:25:32;11.60;66.50
774;DHT22;370;48.810;9.150;2023-11-19T06:28:02;11.60;67.10
774;DHT22;370;48.810;9.150;2023-11-19T06:30:29;11.60;66.80
774;DHT22;370;48.810;9.150;2023-11-19T06:32:58;11.60;65.90
774;DHT22;370;48.810;9.150;2023-11-19T06:35:25;11.70;65.50
774;DHT22;370;48.810;9.150;2023-11-19T06:37:52;11.80;62.60
774;DHT22;370;48.810;9.150;2023-11-19T06:40:18;11.80;63.00
774;DHT22;370;48.810;9.150;2023-11-19T06:42:46;11.90;62.00
774;DHT22;370;48.810;9.150;2023-11-19T06:45:14;11.90;61.60
774;DHT22;370;48.810;9.150;2023-11-19T06:47:41;12.00;59.40
774;DHT22;370;48.810;9.150;2023-11-19T06:50:08;12.00;57.90
774;DHT22;370;48.810;9.150;2023-11-19T06:52:35;11.90;59.10
774;DHT22;370;48.810;9.150;2023-11-19T06:55:03;11.90;59.80
774;DHT22;370;48.810;9.150;2023-11-19T06:57:30;12.00;60.00
774;DHT22;370;48.810;9.150;2023-11-19T06:59:57;12.00;58.10
774;DHT22;370;48.810;9.150;2023-11-19T07:02:25;12.10;56.80
774;DHT22;370;48.810;9.150;2023-11-19T07:04:52;12.10;56.60
774;DHT22;370;48.810;9.150;2023-11-19T07:07:20;12.10;56.30
774;DHT22;370;48.810;9.150;2023-11-19T07:09:46;12.00;55.40
774;DHT22;370;48.810;9.150;2023-11-19T07:12:14;12.00;55.30
774;DHT22;370;48.810;9.150;2023-11-19T07:14:41;12.00;56.40
774;DHT22;370;48.810;9.150;2023-11-19T07:17:08;12.00;56.70
774;DHT22;370;48.810;9.150;2023-11-19T07:19:37;12.00;56.70
774;DHT22;370;48.810;9.150;2023-11-19T07:22:04;12.10;56.40
774;DHT22;370;48.810;9.150;2023-11-19T07:24:31;12.10;55.30
774;DHT22;370;48.810;9.150;2023-11-19T07:26:58;12.20;54.60
774;DHT22;370;48.810;9.150;2023-11-19T07:29:25;12.20;53.50
774;DHT22;370;48.810;9.150;2023-11-19T07:31:51;12.20;53.50
774;DHT22;370;48.810;9.150;2023-11-19T07:34:18;12.20;52.80
774;DHT22;370;48.810;9.150;2023-11-19T07:36:48;12.30;52.20
774;DHT22;370;48.810;9.150;2023-11-19T07:39:14;12.30;52.00
774;DHT22;370;48.810;9.150;2023-11-19T07:41:41;12.30;52.20
774;DHT22;370;48.810;9.150;2023-11-19T07:44:08;12.30;50.60
774;DHT22;370;48.810;9.150;2023-11-19T07:46:35;12.40;49.70
774;DHT22;370;48.810;9.150;2023-11-19T07:49:01;12.40;48.80
774;DHT22;370;48.810;9.150;2023-11-19T07:51:28;12.50;47.90
774;DHT22;370;48.810;9.150;2023-11-19T07:53:56;12.40;48.60
774;DHT22;370;48.810;9.150;2023-11-19T07:56:23;12.40;48.30
774;DHT22;370;48.810;9.150;2023-11-19T07:58:50;12.50;46.00
774;DHT22;370;48.810;9.150;2023-11-19T08:01:17;12.50;45.30
774;DHT22;370;48.810;9.150;2023-11-19T08:03:44;12.50;45.30
774;DHT22;370;48.810;9.150;2023-11-19T08:06:11;12.60;44.70
774;DHT22;370;48.810;9.150;2023-11-19T08:08:38;12.60;45.40
774;DHT22;370;48.810;9.150;2023-11-19T08:11:06;12.70;43.70
774;DHT22;370;48.810;9.150;2023-11-19T08:13:34;12.70;40.90
774;DHT22;370;48.810;9.150;2023-11-19T08:16:00;12.80;40.60
774;DHT22;370;48.810;9.150;2023-11-19T08:18:28;12.90;38.70
774;DHT22;370;48.810;9.150;2023-11-19T08:20:56;13.00;37.50
774;DHT22;370;48.810;9.150;2023-11-19T08:23:24;13.00;36.80
774;DHT22;370;48.810;9.150;2023-11-19T08:25:51;13.00;37.40
774;DHT22;370;48.810;9.150;2023-11-19T08:28:20;13.00;37.40
774;DHT22;370;48.810;9.150;2023-11-19T08:30:47;13.10;37.40
774;DHT22;370;48.810;9.150;2023-11-19T08:33:13;13.30;33.40
774;DHT22;370;48.810;9.150;2023-11-19T08:35:40;13.60;31.10
774;DHT22;370;48.810;9.150;2023-11-19T08:38:07;13.70;30.00
774;DHT22;370;48.810;9.150;2023-11-19T08:40:34;13.90;25.80
774;DHT22;370;48.810;9.150;2023-11-19T08:43:01;14.30;24.80
774;DHT22;370;48.810;9.150;2023-11-19T08:45:29;14.70;18.80
774;DHT22;370;48.810;9.150;2023-11-19T08:47:57;15.10;17.30
774;DHT22;370;48.810;9.150;2023-11-19T08:50:23;15.20;12.70
774;DHT22;370;48.810;9.150;2023-11-19T08:52:50;15.20;13.20
774;DHT22;370;48.810;9.150;2023-11-19T08:55:17;15.00;12.30
774;DHT22;370;48.810;9.150;2023-11-19T08:57:44;15.00;14.10
774;DHT22;370;48.810;9.150;2023-11-19T09:00:12;14.90;14.40
774;DHT22;370;48.810;9.150;2023-11-19T09:02:42;14.80;14.10
774;DHT22;370;48.810;9.150;2023-11-19T09:05:09;14.80;14.90
774;DHT22;370;48.810;9.150;2023-11-19T09:07:36;15.30;14.30
774;DHT22;370;48.810;9.150;2023-11-19T09:10:04;16.10;11.90
774;DHT22;370;48.810;9.150;2023-11-19T09:12:31;16.80;3.00
774;DHT22;370;48.810;9.150;2023-11-19T09:14:58;18.10;1.00
774;DHT22;370;48.810;9.150;2023-11-19T09:17:25;18.60;1.00
774;DHT22;370;48.810;9.150;2023-11-19T09:19:53;19.10;1.00
774;DHT22;370;48.810;9.150;2023-11-19T09:22:20;18.50;1.00
774;DHT22;370;48.810;9.150;2023-11-19T09:24:48;17.80;1.00
774;DHT22;370;48.810;9.150;2023-11-19T09:27:15;17.50;1.00
774;DHT22;370;48.810;9.150;2023-11-19T09:29:42;17.00;1.00
774;DHT22;370;48.810;9.150;2023-11-19T09:32:11;16.70;1.00
774;DHT22;370;48.810;9.150;2023-11-19T09:34:38;16.50;1.00
774;DHT22;370;48.810;9.150;2023-11-19T09:37:07;16.30;1.00
774;DHT22;370;48.810;9.150;2023-11-19T09:39:34;16.10;1.10
774;DHT22;370;48.810;9.150;2023-11-19T09:42:02;16.30;1.40
774;DHT22;370;48.810;9.150;2023-11-19T09:44:30;16.30;1.60
774;DHT22;370;48.810;9.150;2023-11-19T09:46:58;16.30;1.30
774;DHT22;370;48.810;9.150;2023-11-19T09:49:26;17.00;2.60
774;DHT22;370;48.810;9.150;2023-11-19T09:51:54;19.10;1.00
774;DHT22;370;48.810;9.150;2023-11-19T09:54:23;19.60;1.00
774;DHT22;370;48.810;9.150;2023-11-19T09:56:51;20.40;1.00
774;DHT22;370;48.810;9.150;2023-11-19T09:59:18;21.20;1.00
774;DHT22;370;48.810;9.150;2023-11-19T10:01:45;21.30;1.00
774;DHT22;370;48.810;9.150;2023-11-19T10:04:15;20.90;1.00
774;DHT22;370;48.810;9.150;2023-11-19T10:06:44;20.20;1.00
774;DHT22;370;48.810;9.150;2023-11-19T10:09:12;19.50;1.00
774;DHT22;370;48.810;9.150;2023-11-19T10:11:43;19.50;1.00
774;DHT22;370;48.810;9.150;2023-11-19T10:14:10;19.30;1.00
774;DHT22;370;48.810;9.150;2023-11-19T10:16:38;19.10;1.00
774;DHT22;370;48.810;9.150;2023-11-19T10:19:05;19.30;1.00
774;DHT22;370;48.810;9.150;2023-11-19T10:21:32;18.90;1.00
774;DHT22;370;48.810;9.150;2023-11-19T10:24:00;19.00;1.00
774;DHT22;370;48.810;9.150;2023-11-19T10:26:27;19.30;1.00
774;DHT22;370;48.810;9.150;2023-11-19T10:28:55;19.10;1.00
774;DHT22;370;48.810;9.150;2023-11-19T10:31:22;19.40;1.00
774;DHT22;370;48.810;9.150;2023-11-19T10:33:50;19.70;1.00
774;DHT22;370;48.810;9.150;2023-11-19T10:36:18;19.80;1.00
774;DHT22;370;48.810;9.150;2023-11-19T10:38:52;19.70;1.00
774;DHT22;370;48.810;9.150;2023-11-19T10:41:29;19.50;1.00
774;DHT22;370;48.810;9.150;2023-11-19T10:43:57;20.10;1.00
774;DHT22;370;48.810;9.150;2023-11-19T10:46:36;22.60;1.00
774;DHT22;370;48.810;9.150;2023-11-19T10:49:03;24.50;1.00
774;DHT22;370;48.810;9.150;2023-11-19T10:51:31;24.60;1.00
774;DHT22;370;48.810;9.150;2023-11-19T10:54:02;23.60;1.00
774;DHT22;370;48.810;9.150;2023-11-19T10:56:33;23.60;1.00
774;DHT22;370;48.810;9.150;2023-11-19T10:59:02;23.50;1.00
774;DHT22;370;48.810;9.150;2023-11-19T11:01:42;23.90;1.00
774;DHT22;370;48.810;9.150;2023-11-19T11:04:13;24.60;1.00
774;DHT22;370;48.810;9.150;2023-11-19T11:06:40;23.70;1.00
774;DHT22;370;48.810;9.150;2023-11-19T11:09:09;23.00;1.00
774;DHT22;370;48.810;9.150;2023-11-19T11:11:38;22.20;1.00
774;DHT22;370;48.810;9.150;2023-11-19T11:14:08;21.40;1.00
774;DHT22;370;48.810;9.150;2023-11-19T11:16:37;20.80;1.00
774;DHT22;370;48.810;9.150;2023-11-19T11:19:08;20.20;1.00
774;DHT22;370;48.810;9.150;2023-11-19T11:21:37;19.80;1.00
774;DHT22;370;48.810;9.150;2023-11-19T11:24:21;19.60;1.00
774;DHT22;370;48.810;9.150;2023-11-19T11:27:07;19.40;1.00
774;DHT22;370;48.810;9.150;2023-11-19T11:29:45;19.30;1.00
774;DHT22;370;48.810;9.150;2023-11-19T11:32:21;19.40;1.00
774;DHT22;370;48.810;9.150;2023-11-19T11:35:03;19.40;1.00
774;DHT22;370;48.810;9.150;2023-11-19T11:37:37;19.50;1.00
774;DHT22;370;48.810;9.150;2023-11-19T11:40:06;19.70;1.00
774;DHT22;370;48.810;9.150;2023-11-19T11:42:37;19.90;1.00
774;DHT22;370;48.810;9.150;2023-11-19T11:45:07;20.80;1.00
774;DHT22;370;48.810;9.150;2023-11-19T11:50:57;20.90;1.00
774;DHT22;370;48.810;9.150;2023-11-19T11:53:25;20.30;1.00
774;DHT22;370;48.810;9.150;2023-11-19T11:56:02;19.80;1.00
774;DHT22;370;48.810;9.150;2023-11-19T11:58:35;19.40;1.00
774;DHT22;370;48.810;9.150;2023-11-19T12:01:05;19.30;1.00
774;DHT22;370;48.810;9.150;2023-11-19T12:03:37;20.60;1.00
774;DHT22;370;48.810;9.150;2023-11-19T12:06:05;22.30;1.00
774;DHT22;370;48.810;9.150;2023-11-19T12:08:34;23.20;1.00
774;DHT22;370;48.810;9.150;2023-11-19T12:11:02;23.70;1.00
774;DHT22;370;48.810;9.150;2023-11-19T12:13:53;24.50;1.00
774;DHT22;370;48.810;9.150;2023-11-19T12:16:23;24.50;1.00
774;DHT22;370;48.810;9.150;2023-11-19T12:18:49;23.80;1.00
774;DHT22;370;48.810;9.150;2023-11-19T12:21:29;24.60;1.00
774;DHT22;370;48.810;9.150;2023-11-19T12:23:58;25.50;1.00
774;DHT22;370;48.810;9.150;2023-11-19T12:26:34;24.40;1.00
774;DHT22;370;48.810;9.150;2023-11-19T12:29:01;23.70;1.00
774;DHT22;370;48.810;9.150;2023-11-19T12:31:33;22.90;1.00
774;DHT22;370;48.810;9.150;2023-11-19T12:34:08;22.10;1.00
774;DHT22;370;48.810;9.150;2023-11-19T12:36:38;21.20;1.00
774;DHT22;370;48.810;9.150;2023-11-19T12:39:05;20.50;1.00
774;DHT22;370;48.810;9.150;2023-11-19T12:41:33;19.90;1.00
774;DHT22;370;48.810;9.150;2023-11-19T12:44:15;19.10;1.00
774;DHT22;370;48.810;9.150;2023-11-19T12:46:43;18.70;1.00
774;DHT22;370;48.810;9.150;2023-11-19T12:49:11;18.30;1.00
774;DHT22;370;48.810;9.150;2023-11-19T12:51:38;18.10;1.00
774;DHT22;370;48.810;9.150;2023-11-19T12:54:05;17.90;1.00
774;DHT22;370;48.810;9.150;2023-11-19T12:56:32;17.60;1.00
774;DHT22;370;48.810;9.150;2023-11-19T12:59:10;17.30;1.00
774;DHT22;370;48.810;9.150;2023-11-19T13:01:37;17.10;1.00
774;DHT22;370;48.810;9.150;2023-11-19T13:04:17;17.10;1.00
774;DHT22;370;48.810;9.150;2023-11-19T13:06:45;17.00;1.00
774;DHT22;370;48.810;9.150;2023-11-19T13:09:21;16.90;1.00
774;DHT22;370;48.810;9.150;2023-11-19T13:11:48;16.80;1.00
774;DHT22;370;48.810;9.150;2023-11-19T13:14:15;16.70;1.00
774;DHT22;370;48.810;9.150;2023-11-19T13:16:42;16.70;1.00
774;DHT22;370;48.810;9.150;2023-11-19T13:19:11;16.80;1.00
774;DHT22;370;48.810;9.150;2023-11-19T13:21:39;16.80;1.00
774;DHT22;370;48.810;9.150;2023-11-19T13:24:06;16.70;1.00
774;DHT22;370;48.810;9.150;2023-11-19T13:26:32;16.70;1.00
774;DHT22;370;48.810;9.150;2023-11-19T13:29:00;16.70;1.00
774;DHT22;370;48.810;9.150;2023-11-19T13:31:27;16.80;1.00
774;DHT22;370;48.810;9.150;2023-11-19T13:33:54;16.80;1.00
774;DHT22;370;48.810;9.150;2023-11-19T13:36:22;16.70;1.00
774;DHT22;370;48.810;9.150;2023-11-19T13:38:50;16.70;1.00
774;DHT22;370;48.810;9.150;2023-11-19T13:41:17;16.70;1.00
774;DHT22;370;48.810;9.150;2023-11-19T13:43:43;16.70;1.00
774;DHT22;370;48.810;9.150;2023-11-19T13:46:11;16.50;1.00
774;DHT22;370;48.810;9.150;2023-11-19T13:48:37;16.40;1.00
774;DHT22;370;48.810;9.150;2023-11-19T13:51:05;16.40;1.00
774;DHT22;370;48.810;9.150;2023-11-19T13:53:32;16.20;1.00
774;DHT22;370;48.810;9.150;2023-11-19T13:56:00;16.10;1.00
774;DHT22;370;48.810;9.150;2023-11-19T13:58:26;16.00;1.00
774;DHT22;370;48.810;9.150;2023-11-19T14:00:53;15.90;1.00
774;DHT22;370;48.810;9.150;2023-11-19T14:03:20;15.80;1.00
774;DHT22;370;48.810;9.150;2023-11-19T14:05:47;15.60;1.00
774;DHT22;370;48.810;9.150;2023-11-19T14:08:17;15.50;1.00
774;DHT22;370;48.810;9.150;2023-11-19T14:10:44;15.50;1.00
774;DHT22;370;48.810;9.150;2023-11-19T14:13:12;15.40;1.00
774;DHT22;370;48.810;9.150;2023-11-19T14:15:41;15.30;1.00
774;DHT22;370;48.810;9.150;2023-11-19T14:18:08;15.30;1.00
774;DHT22;370;48.810;9.150;2023-11-19T14:20:34;15.20;1.00
774;DHT22;370;48.810;9.150;2023-11-19T14:23:03;15.20;1.00
774;DHT22;370;48.810;9.150;2023-11-19T14:25:30;15.10;1.00
774;DHT22;370;48.810;9.150;2023-11-19T14:27:57;15.10;1.00
774;DHT22;370;48.810;9.150;2023-11-19T14:30:25;15.10;1.00
774;DHT22;370;48.810;9.150;2023-11-19T14:32:52;15.00;1.00
774;DHT22;370;48.810;9.150;2023-11-19T14:35:19;15.00;1.00
774;DHT22;370;48.810;9.150;2023-11-19T14:37:46;14.90;1.00
774;DHT22;370;48.810;9.150;2023-11-19T14:40:14;14.90;1.00
774;DHT22;370;48.810;9.150;2023-11-19T14:42:41;14.80;1.00
774;DHT22;370;48.810;9.150;2023-11-19T14:45:09;14.70;1.00
774;DHT22;370;48.810;9.150;2023-11-19T14:47:39;14.70;1.00
774;DHT22;370;48.810;9.150;2023-11-19T14:50:06;14.60;1.00
774;DHT22;370;48.810;9.150;2023-11-19T14:52:35;14.60;1.00
774;DHT22;370;48.810;9.150;2023-11-19T14:55:02;14.50;1.00
774;DHT22;370;48.810;9.150;2023-11-19T14:57:29;14.50;1.00
774;DHT22;370;48.810;9.150;2023-11-19T14:59:56;14.50;1.00
774;DHT22;370;48.810;9.150;2023-11-19T15:02:23;14.40;1.00
774;DHT22;370;48.810;9.150;2023-11-19T15:04:51;14.40;1.00
774;DHT22;370;48.810;9.150;2023-11-19T15:07:18;14.40;1.00
774;DHT22;370;48.810;9.150;2023-11-19T15:09:44;14.30;1.00
774;DHT22;370;48.810;9.150;2023-11-19T15:12:11;14.30;1.00
774;DHT22;370;48.810;9.150;2023-11-19T15:14:38;14.20;1.00
774;DHT22;370;48.810;9.150;2023-11-19T15:17:04;14.20;1.00
774;DHT22;370;48.810;9.150;2023-11-19T15:19:33;14.20;1.00
774;DHT22;370;48.810;9.150;2023-11-19T15:22:01;14.10;1.00
774;DHT22;370;48.810;9.150;2023-11-19T15:24:31;14.20;1.00
774;DHT22;370;48.810;9.150;2023-11-19T15:33:42;14.00;1.00
774;DHT22;370;48.810;9.150;2023-11-19T15:36:09;13.90;1.00
774;DHT22;370;48.810;9.150;2023-11-19T15:38:37;13.90;1.00
774;DHT22;370;48.810;9.150;2023-11-19T15:41:04;13.80;1.00
774;DHT22;370;48.810;9.150;2023-11-19T15:43:32;13.70;1.00
774;DHT22;370;48.810;9.150;2023-11-19T15:45:59;13.70;1.00
774;DHT22;370;48.810;9.150;2023-11-19T15:48:26;13.60;1.00
774;DHT22;370;48.810;9.150;2023-11-19T15:50:53;13.60;1.00
774;DHT22;370;48.810;9.150;2023-11-19T15:56:49;13.50;1.00
774;DHT22;370;48.810;9.150;2023-11-19T15:59:16;13.40;1.00
774;DHT22;370;48.810;9.150;2023-11-19T16:01:43;13.40;1.00
774;DHT22;370;48.810;9.150;2023-11-19T16:04:10;13.30;1.00
774;DHT22;370;48.810;9.150;2023-11-19T16:06:37;13.30;1.00
774;DHT22;370;48.810;9.150;2023-11-19T16:09:04;13.20;1.00
774;DHT22;370;48.810;9.150;2023-11-19T16:11:31;13.10;1.00
774;DHT22;370;48.810;9.150;2023-11-19T16:13:59;13.10;1.00
774;DHT22;370;48.810;9.150;2023-11-19T16:16:25;13.10;1.00
774;DHT22;370;48.810;9.150;2023-11-19T16:18:52;13.10;1.00
774;DHT22;370;48.810;9.150;2023-11-19T16:21:19;13.10;1.00
774;DHT22;370;48.810;9.150;2023-11-19T16:23:46;13.00;1.00
774;DHT22;370;48.810;9.150;2023-11-19T16:26:12;12.90;1.00
774;DHT22;370;48.810;9.150;2023-11-19T16:28:39;12.90;1.00
774;DHT22;370;48.810;9.150;2023-11-19T16:31:11;12.90;1.00
774;DHT22;370;48.810;9.150;2023-11-19T16:33:38;12.80;1.00
774;DHT22;370;48.810;9.150;2023-11-19T16:36:06;12.80;1.00
774;DHT22;370;48.810;9.150;2023-11-19T16:38:34;12.70;1.00
774;DHT22;370;48.810;9.150;2023-11-19T16:41:00;12.70;1.00
774;DHT22;370;48.810;9.150;2023-11-19T16:43:29;12.70;1.00
774;DHT22;370;48.810;9.150;2023-11-19T16:45:56;12.70;1.00
774;DHT22;370;48.810;9.150;2023-11-19T16:48:24;12.70;1.00
774;DHT22;370;48.810;9.150;2023-11-19T16:50:52;12.70;1.00
774;DHT22;370;48.810;9.150;2023-11-19T16:53:19;12.60;1.00
774;DHT22;370;48.810;9.150;2023-11-19T16:55:46;12.60;1.00
774;DHT22;370;48.810;9.150;2023-11-19T16:58:13;12.60;1.00
774;DHT22;370;48.810;9.150;2023-11-19T17:00:39;12.60;1.00
774;DHT22;370;48.810;9.150;2023-11-19T17:03:06;12.60;1.00
774;DHT22;370;48.810;9.150;2023-11-19T17:05:34;12.50;1.00